createdAt,value
2019-01-31T00:02:29.127Z,-1.05
2019-01-31T00:05:26.771Z,-0.93
2019-01-31T00:08:45.472Z,-0.91
2019-01-31T00:11:37.489Z,-0.87
2019-01-31T00:14:40.981Z,-0.82
2019-01-31T00:17:51.864Z,-0.81
2019-01-31T00:21:06.975Z,-0.75
2019-01-31T00:23:57.508Z,-0.65
2019-01-31T00:27:22.138Z,-0.64
2019-01-31T00:30:41.183Z,-0.73
2019-01-31T00:33:54.278Z,-0.52
2019-01-31T00:36:48.966Z,-0.43
2019-01-31T00:40:11.146Z,-0.57
2019-01-31T00:43:04.987Z,-0.45
2019-01-31T00:46:23.562Z,-0.48
2019-01-31T00:49:30.738Z,-0.59
2019-01-31T00:52:38.555Z,-0.58
2019-01-31T00:55:43.203Z,-0.54
2019-01-31T00:58:45.005Z,-0.41
2019-01-31T01:01:36.745Z,-0.49
2019-01-31T01:04:57.257Z,-0.52
2019-01-31T01:08:07.827Z,-0.53
2019-01-31T01:10:52.269Z,-0.47
2019-01-31T01:13:55.630Z,-0.47
2019-01-31T01:17:12.546Z,-0.59
2019-01-31T01:19:56.201Z,-0.61
2019-01-31T01:22:40.459Z,-0.59
2019-01-31T01:25:53.205Z,-0.58
2019-01-31T01:29:15.498Z,-0.60
2019-01-31T01:32:31.772Z,-0.55
2019-01-31T01:35:53.854Z,-0.73
2019-01-31T01:39:19.630Z,-0.82
2019-01-31T01:42:22.913Z,-0.98
2019-01-31T01:45:34.651Z,-1.04
2019-01-31T01:48:24.532Z,-1.11
2019-01-31T01:51:26.998Z,-1.19
2019-01-31T01:54:41.842Z,-1.27
2019-01-31T01:57:50.033Z,-1.32
2019-01-31T02:01:08.641Z,-1.37
2019-01-31T02:04:24.611Z,-1.44
2019-01-31T02:07:20.683Z,-1.47
2019-01-31T02:10:29.903Z,-1.48
2019-01-31T02:13:37.313Z,-1.51
2019-01-31T02:16:32.527Z,-1.51
2019-01-31T02:19:14.568Z,-1.58
2019-01-31T02:22:18.649Z,-1.60
2019-01-31T02:25:05.318Z,-1.67
2019-01-31T02:28:12.188Z,-1.69
2019-01-31T02:31:18.245Z,-1.68
2019-01-31T02:34:16.296Z,-1.66
2019-01-31T02:37:26.846Z,-1.62
2019-01-31T02:40:14.099Z,-1.67
2019-01-31T02:43:00.631Z,-1.64
2019-01-31T02:46:22.565Z,-1.61
2019-01-31T02:49:26.820Z,-1.60
2019-01-31T02:52:27.302Z,-1.72
2019-01-31T02:55:28.683Z,-1.74
2019-01-31T02:58:31.100Z,-1.74
2019-01-31T03:01:32.584Z,-1.74
2019-01-31T03:04:32.316Z,-1.68
2019-01-31T03:07:45.927Z,-1.67
2019-01-31T03:10:45.779Z,-1.69
2019-01-31T03:13:45.717Z,-1.73
2019-01-31T03:16:44.722Z,-1.76
2019-01-31T03:20:08.850Z,-1.84
2019-01-31T03:23:06.626Z,-1.86
2019-01-31T03:26:14.920Z,-1.88
2019-01-31T03:29:17.145Z,-1.89
2019-01-31T03:32:11.571Z,-1.88
2019-01-31T03:35:12.238Z,-1.90
2019-01-31T03:38:15.556Z,-1.96
2019-01-31T03:41:34.062Z,-2.00
2019-01-31T03:45:01.676Z,-2.03
2019-01-31T03:48:13.358Z,-2.04
2019-01-31T03:51:03.017Z,-2.07
2019-01-31T03:54:23.166Z,-2.13
2019-01-31T03:57:30.007Z,-2.14
2019-01-31T04:00:58.078Z,-2.16
2019-01-31T04:03:37.661Z,-2.22
2019-01-31T04:06:23.377Z,-2.24
2019-01-31T04:08:55.608Z,-2.27
2019-01-31T04:11:27.218Z,-2.30
2019-01-31T04:13:59.067Z,-2.41
2019-01-31T04:16:30.692Z,-2.43
2019-01-31T04:19:02.408Z,-2.47
2019-01-31T04:21:34.107Z,-2.48
2019-01-31T04:24:06.212Z,-2.49
2019-01-31T04:26:37.914Z,-2.48
2019-01-31T04:29:09.587Z,-2.51
2019-01-31T04:31:41.266Z,-2.53
2019-01-31T04:34:12.903Z,-2.57
2019-01-31T04:36:44.493Z,-2.60
2019-01-31T04:39:16.128Z,-2.58
2019-01-31T04:41:47.757Z,-2.59
2019-01-31T04:44:19.480Z,-2.60
2019-01-31T04:46:51.113Z,-2.58
2019-01-31T04:49:22.794Z,-2.59
2019-01-31T04:51:54.899Z,-2.60
2019-01-31T04:54:26.848Z,-2.61
2019-01-31T04:56:59.043Z,-2.63
2019-01-31T04:59:30.778Z,-2.62
2019-01-31T05:02:02.388Z,-2.64
2019-01-31T05:04:33.995Z,-2.62
2019-01-31T05:07:05.704Z,-2.70
2019-01-31T05:09:37.391Z,-2.74
2019-01-31T05:12:09.092Z,-2.75
2019-01-31T05:14:40.796Z,-2.76
2019-01-31T05:17:12.404Z,-2.74
2019-01-31T05:19:44.092Z,-2.77
2019-01-31T05:22:15.764Z,-2.78
2019-01-31T05:24:47.473Z,-2.80
2019-01-31T05:27:19.147Z,-2.81
2019-01-31T05:29:50.842Z,-2.83
2019-01-31T05:32:22.449Z,-2.84
2019-01-31T05:34:54.162Z,-2.86
2019-01-31T05:37:25.980Z,-2.89
2019-01-31T05:39:58.656Z,-2.92
2019-01-31T05:42:30.355Z,-2.94
2019-01-31T05:45:02.071Z,-3.00
2019-01-31T05:47:33.738Z,-3.02
2019-01-31T05:50:05.934Z,-3.03
2019-01-31T05:52:37.595Z,-3.01
2019-01-31T05:55:09.338Z,-3.07
2019-01-31T05:57:40.957Z,-3.10
2019-01-31T06:00:15.949Z,-3.11
2019-01-31T06:02:47.625Z,-3.14
2019-01-31T06:05:19.341Z,-3.15
2019-01-31T06:07:51.026Z,-3.20
2019-01-31T06:10:22.743Z,-3.20
2019-01-31T06:12:54.370Z,-3.23
2019-01-31T06:15:26.063Z,-3.23
2019-01-31T06:17:58.779Z,-3.25
2019-01-31T06:20:30.454Z,-3.28
2019-01-31T06:23:02.156Z,-3.28
2019-01-31T06:25:33.859Z,-3.28
2019-01-31T06:28:05.523Z,-3.26
2019-01-31T06:30:37.231Z,-3.27
2019-01-31T06:33:08.925Z,-3.27
2019-01-31T06:35:40.657Z,-3.23
2019-01-31T06:38:12.943Z,-3.22
2019-01-31T06:40:44.572Z,-3.23
2019-01-31T06:43:16.448Z,-3.23
2019-01-31T06:45:48.629Z,-3.22
2019-01-31T06:48:20.306Z,-3.23
2019-01-31T06:50:51.957Z,-3.27
2019-01-31T06:53:23.582Z,-3.24
2019-01-31T06:55:55.623Z,-3.23
2019-01-31T06:58:27.249Z,-3.21
2019-01-31T07:00:59.146Z,-3.21
2019-01-31T07:03:31.929Z,-3.15
2019-01-31T07:06:03.560Z,-3.06
2019-01-31T07:08:35.247Z,-3.03
2019-01-31T07:11:06.941Z,-2.99
2019-01-31T07:13:38.591Z,-2.97
2019-01-31T07:16:10.212Z,-2.93
2019-01-31T07:18:42.914Z,-2.88
2019-01-31T07:21:14.605Z,-2.77
2019-01-31T07:23:46.316Z,-2.69
2019-01-31T07:26:17.949Z,-2.58
2019-01-31T07:28:49.635Z,-2.53
2019-01-31T07:31:21.343Z,-2.42
2019-01-31T07:33:53.033Z,-2.32
2019-01-31T07:36:25.067Z,-2.21
2019-01-31T07:38:56.914Z,-2.11
2019-01-31T07:41:40.902Z,-2.03
2019-01-31T07:44:06.749Z,-1.98
2019-01-31T07:46:38.500Z,-1.85
2019-01-31T07:49:10.252Z,-1.84
2019-01-31T07:51:41.994Z,-1.78
2019-01-31T07:54:13.793Z,-1.78
2019-01-31T07:56:45.638Z,-1.99
2019-01-31T07:59:17.398Z,-2.00
2019-01-31T08:01:49.158Z,-1.82
2019-01-31T08:04:20.913Z,-1.61
2019-01-31T08:06:52.663Z,-1.45
2019-01-31T08:09:24.434Z,-1.34
2019-01-31T08:11:56.218Z,-1.17
2019-01-31T08:14:29.036Z,-1.14
2019-01-31T08:17:00.773Z,-1.20
2019-01-31T08:19:32.540Z,-1.03
2019-01-31T08:22:04.310Z,-0.88
2019-01-31T08:24:36.099Z,-0.89
2019-01-31T08:27:09.429Z,-0.96
2019-01-31T08:29:41.210Z,-0.76
2019-01-31T08:32:19.217Z,-0.68
2019-01-31T08:34:51.026Z,-0.65
2019-01-31T08:37:26.956Z,-0.51
2019-01-31T08:39:59.273Z,-0.38
2019-01-31T08:42:31.079Z,-0.24
2019-01-31T08:45:02.825Z,-0.12
2019-01-31T08:47:34.571Z,0.12
2019-01-31T08:50:07.448Z,1.31
2019-01-31T08:52:41.635Z,3.87
2019-01-31T08:55:12.775Z,5.10
2019-01-31T08:57:53.721Z,6.20
2019-01-31T09:00:27.037Z,9.30
2019-01-31T09:02:59.155Z,11.19
2019-01-31T09:05:30.932Z,13.19
2019-01-31T09:08:02.892Z,14.53
2019-01-31T09:10:39.097Z,15.25
2019-01-31T09:13:12.357Z,16.16
2019-01-31T09:15:45.714Z,16.42
2019-01-31T09:18:18.139Z,16.44
2019-01-31T09:20:59.553Z,15.55
2019-01-31T09:24:08.675Z,14.91
2019-01-31T09:27:15.613Z,15.70
2019-01-31T09:30:28.974Z,14.38
2019-01-31T09:33:47.100Z,14.16
2019-01-31T09:36:52.679Z,15.68
2019-01-31T09:40:01.463Z,17.45
2019-01-31T09:43:04.368Z,19.57
2019-01-31T09:46:20.359Z,19.48
2019-01-31T09:49:45.883Z,19.49
2019-01-31T09:52:55.850Z,20.36
2019-01-31T09:55:49.598Z,20.20
2019-01-31T09:58:55.905Z,20.37
2019-01-31T10:02:03.297Z,20.82
2019-01-31T10:04:57.423Z,20.25
2019-01-31T10:07:47.727Z,22.02
2019-01-31T10:11:05.439Z,22.24
2019-01-31T10:14:30.226Z,22.75
2019-01-31T10:17:41.014Z,23.34
2019-01-31T10:21:00.242Z,22.79
2019-01-31T10:24:24.897Z,22.59
2019-01-31T10:27:47.078Z,22.17
2019-01-31T10:30:55.358Z,18.17
2019-01-31T10:33:57.677Z,15.16
2019-01-31T10:37:17.607Z,14.53
2019-01-31T10:40:36.377Z,12.06
2019-01-31T10:43:48.210Z,10.80
2019-01-31T10:47:00.628Z,10.39
2019-01-31T10:50:05.267Z,9.49
2019-01-31T10:53:09.895Z,8.74
2019-01-31T10:56:21.887Z,7.04
2019-01-31T10:59:29.003Z,6.81
2019-01-31T11:02:51.542Z,6.70
2019-01-31T11:05:53.070Z,5.75
2019-01-31T11:09:02.225Z,5.87
2019-01-31T11:12:13.118Z,5.91
2019-01-31T11:15:05.256Z,6.88
2019-01-31T11:18:14.507Z,8.49
2019-01-31T11:21:16.620Z,8.04
2019-01-31T11:24:35.478Z,7.72
2019-01-31T11:27:53.902Z,7.29
2019-01-31T11:30:56.462Z,6.83
2019-01-31T11:34:32.459Z,6.62
2019-01-31T11:37:26.248Z,6.52
2019-01-31T11:40:57.464Z,6.42
2019-01-31T11:43:56.108Z,6.27
2019-01-31T11:47:12.467Z,6.17
2019-01-31T11:50:05.428Z,6.04
2019-01-31T11:53:05.338Z,6.02
2019-01-31T11:56:22.309Z,5.82
2019-01-31T11:59:05.812Z,5.49
2019-01-31T12:01:38.930Z,5.53
2019-01-31T12:04:15.881Z,5.50
2019-01-31T12:06:48.315Z,5.34
2019-01-31T12:09:21.205Z,5.42
2019-01-31T12:11:53.357Z,5.44
2019-01-31T12:14:27.008Z,5.36
2019-01-31T12:16:59.799Z,5.29
2019-01-31T12:19:33.292Z,5.10
2019-01-31T12:22:06.539Z,4.99
2019-01-31T12:24:39.410Z,4.84
2019-01-31T12:27:11.615Z,5.04
2019-01-31T12:29:43.717Z,4.99
2019-01-31T12:32:15.545Z,5.17
2019-01-31T12:34:47.264Z,5.24
2019-01-31T12:37:22.250Z,5.25
2019-01-31T12:39:54.484Z,5.21
2019-01-31T12:42:26.857Z,5.20
2019-01-31T12:44:59.051Z,5.12
2019-01-31T12:47:31.326Z,5.05
2019-01-31T12:50:03.312Z,4.91
2019-01-31T12:52:35.158Z,4.96
2019-01-31T12:55:06.926Z,4.89
2019-01-31T12:57:39.767Z,4.93
2019-01-31T13:00:30.796Z,4.85
2019-01-31T13:03:02.763Z,4.77
2019-01-31T13:05:34.727Z,4.85
2019-01-31T13:08:06.623Z,4.68
2019-01-31T13:10:38.580Z,4.44
2019-01-31T13:13:10.812Z,4.14
2019-01-31T13:15:42.919Z,4.15
2019-01-31T13:18:14.626Z,4.18
2019-01-31T13:20:47.029Z,4.14
2019-01-31T13:23:20.494Z,4.26
2019-01-31T13:25:52.902Z,4.33
2019-01-31T13:28:25.140Z,4.47
2019-01-31T13:30:57.412Z,4.49
2019-01-31T13:33:31.570Z,4.47
2019-01-31T13:36:03.593Z,4.39
2019-01-31T13:38:36.176Z,4.40
2019-01-31T13:41:07.999Z,4.09
2019-01-31T13:43:39.680Z,4.15
2019-01-31T13:46:12.629Z,3.87
2019-01-31T13:48:47.467Z,3.93
2019-01-31T13:51:20.158Z,3.78
2019-01-31T13:53:52.101Z,3.80
2019-01-31T13:56:23.740Z,3.68
2019-01-31T13:58:56.073Z,3.72
2019-01-31T14:01:29.354Z,3.60
2019-01-31T14:04:00.959Z,3.55
2019-01-31T14:06:32.757Z,3.61
2019-01-31T14:09:06.015Z,3.43
2019-01-31T14:11:40.810Z,3.49
2019-01-31T14:14:14.222Z,3.48
2019-01-31T14:16:48.137Z,3.35
2019-01-31T14:19:19.919Z,3.41
2019-01-31T14:21:54.932Z,3.41
2019-01-31T14:24:26.617Z,3.46
2019-01-31T14:26:58.494Z,3.50
2019-01-31T14:29:30.281Z,3.53
2019-01-31T14:32:02.296Z,3.65
2019-01-31T14:34:33.972Z,3.71
2019-01-31T14:37:05.691Z,3.99
2019-01-31T14:39:37.399Z,3.82
2019-01-31T14:42:09.123Z,3.68
2019-01-31T14:44:40.851Z,3.64
2019-01-31T14:47:12.571Z,3.46
2019-01-31T14:49:44.269Z,3.33
2019-01-31T14:52:15.960Z,3.25
2019-01-31T14:54:47.729Z,3.08
2019-01-31T14:57:19.437Z,2.95
2019-01-31T14:59:51.047Z,2.75
2019-01-31T15:02:22.739Z,2.61
2019-01-31T15:04:54.455Z,2.51
2019-01-31T15:07:28.669Z,2.32
2019-01-31T15:10:00.606Z,2.18
2019-01-31T15:12:32.536Z,2.06
2019-01-31T15:15:06.165Z,1.93
2019-01-31T15:17:38.266Z,1.78
2019-01-31T15:20:16.494Z,1.65
2019-01-31T15:22:48.186Z,1.50
2019-01-31T15:25:19.867Z,1.40
2019-01-31T15:27:51.569Z,1.28
2019-01-31T15:30:28.191Z,1.18
2019-01-31T15:33:00.420Z,1.08
2019-01-31T15:35:32.264Z,0.94
2019-01-31T15:38:03.943Z,0.85
2019-01-31T15:40:37.759Z,0.72
2019-01-31T15:43:09.469Z,0.64
2019-01-31T15:45:41.537Z,0.50
2019-01-31T15:48:17.630Z,0.35
2019-01-31T15:50:50.981Z,0.27
2019-01-31T15:53:23.266Z,0.21
2019-01-31T15:55:55.190Z,0.14
2019-01-31T15:58:26.922Z,0.06
2019-01-31T16:01:00.386Z,0.01
2019-01-31T16:03:32.883Z,-0.05
2019-01-31T16:06:07.147Z,-0.12
2019-01-31T16:08:38.260Z,-0.21
2019-01-31T16:11:10.008Z,-0.26
2019-01-31T16:13:41.810Z,-0.34
2019-01-31T16:16:13.496Z,-0.50
2019-01-31T16:18:45.216Z,-0.54
2019-01-31T16:21:16.913Z,-0.56
2019-01-31T16:23:48.593Z,-0.57
2019-01-31T16:26:20.207Z,-0.54
2019-01-31T16:28:51.905Z,-0.61
2019-01-31T16:31:23.593Z,-0.65
2019-01-31T16:33:55.612Z,-0.66
2019-01-31T16:36:27.472Z,-0.67
2019-01-31T16:38:59.562Z,-0.73
2019-01-31T16:41:31.162Z,-0.74
2019-01-31T16:44:02.867Z,-0.78
2019-01-31T16:46:36.502Z,-0.80
2019-01-31T16:49:07.976Z,-0.88
2019-01-31T16:51:39.607Z,-0.88
2019-01-31T16:54:11.317Z,-0.90
2019-01-31T16:56:42.948Z,-0.93
2019-01-31T16:59:14.679Z,-0.95
2019-01-31T17:01:46.451Z,-0.92
2019-01-31T17:04:18.097Z,-0.94
2019-01-31T17:06:49.778Z,-0.96
2019-01-31T17:09:21.472Z,-0.97
2019-01-31T17:11:53.139Z,-0.95
2019-01-31T17:14:24.835Z,-0.98
2019-01-31T17:16:56.608Z,-1.00
2019-01-31T17:19:28.580Z,-1.02
2019-01-31T17:22:00.423Z,-1.00
2019-01-31T17:24:32.361Z,-0.99
2019-01-31T17:27:05.047Z,-0.93
2019-01-31T17:29:36.765Z,-0.84
2019-01-31T17:32:08.486Z,-0.76
2019-01-31T17:34:40.215Z,-0.72
2019-01-31T17:37:11.864Z,-0.68
2019-01-31T17:39:43.574Z,-0.66
2019-01-31T17:42:15.218Z,-0.58
2019-01-31T17:44:46.925Z,-0.53
2019-01-31T17:47:18.617Z,-0.44
2019-01-31T17:49:50.359Z,-0.34
2019-01-31T17:52:22.045Z,-0.25
2019-01-31T17:54:55.986Z,-0.29
2019-01-31T17:57:27.426Z,-0.21
2019-01-31T17:59:59.368Z,-0.14
2019-01-31T18:02:31.052Z,-0.10
2019-01-31T18:05:02.770Z,-0.07
2019-01-31T18:07:34.482Z,-0.05
2019-01-31T18:10:08.860Z,-0.08
2019-01-31T18:12:40.551Z,-0.08
2019-01-31T18:15:12.287Z,-0.04
2019-01-31T18:17:43.998Z,-0.01
2019-01-31T18:20:19.445Z,-0.02
2019-01-31T18:22:52.281Z,-0.10
2019-01-31T18:25:23.924Z,-0.22
2019-01-31T18:27:55.617Z,-0.25
2019-01-31T18:30:28.509Z,-0.36
2019-01-31T18:33:00.492Z,-0.46
2019-01-31T18:35:32.455Z,-0.56
2019-01-31T18:38:04.151Z,-0.68
2019-01-31T18:40:35.760Z,-0.76
2019-01-31T18:43:07.609Z,-0.84
2019-01-31T18:45:39.301Z,-0.92
2019-01-31T18:48:10.990Z,-0.99
2019-01-31T18:50:43.561Z,-1.02
2019-01-31T18:53:15.282Z,-1.09
2019-01-31T18:55:46.983Z,-1.12
2019-01-31T18:58:18.680Z,-1.15
2019-01-31T19:00:51.991Z,-1.16
2019-01-31T19:03:23.760Z,-1.21
2019-01-31T19:05:55.688Z,-1.27
2019-01-31T19:08:27.512Z,-1.29
2019-01-31T19:10:59.602Z,-1.34
2019-01-31T19:13:31.293Z,-1.37
2019-01-31T19:16:05.553Z,-1.37
2019-01-31T19:18:38.124Z,-1.39
2019-01-31T19:21:09.854Z,-1.42
2019-01-31T19:23:41.567Z,-1.42
2019-01-31T19:26:13.259Z,-1.44
2019-01-31T19:28:44.953Z,-1.48
2019-01-31T19:31:16.654Z,-1.52
2019-01-31T19:33:48.365Z,-1.54
2019-01-31T19:36:20.084Z,-1.57
2019-01-31T19:38:51.897Z,-1.56
2019-01-31T19:41:23.619Z,-1.59
2019-01-31T19:43:55.635Z,-1.62
2019-01-31T19:46:27.581Z,-1.61
2019-01-31T19:48:59.523Z,-1.61
2019-01-31T19:51:31.289Z,-1.61
2019-01-31T19:54:03.076Z,-1.59
2019-01-31T19:56:35.957Z,-1.58
2019-01-31T19:59:08.344Z,-1.62
2019-01-31T20:01:41.144Z,-1.66
2019-01-31T20:04:14.341Z,-1.67
2019-01-31T20:06:46.381Z,-1.70
2019-01-31T20:09:21.657Z,-1.70
2019-01-31T20:11:53.407Z,-1.74
2019-01-31T20:14:25.402Z,-1.78
2019-01-31T20:16:57.558Z,-1.76
2019-01-31T20:19:29.846Z,-1.78
2019-01-31T20:22:02.924Z,-1.79
2019-01-31T20:24:34.645Z,-1.78
2019-01-31T20:27:06.453Z,-1.78
2019-01-31T20:29:38.239Z,-1.81
2019-01-31T20:32:11.077Z,-1.78
2019-01-31T20:34:44.205Z,-1.75
2019-01-31T20:37:16.243Z,-1.74
2019-01-31T20:39:49.085Z,-1.77
2019-01-31T20:42:21.372Z,-1.78
2019-01-31T20:44:54.167Z,-1.79
2019-01-31T20:47:26.240Z,-1.89
2019-01-31T20:49:58.311Z,-1.87
2019-01-31T20:52:32.725Z,-1.86
2019-01-31T20:55:04.886Z,-1.85
2019-01-31T20:57:37.716Z,-1.86
2019-01-31T21:00:14.848Z,-1.86
2019-01-31T21:02:48.560Z,-1.87
2019-01-31T21:05:20.584Z,-1.85
2019-01-31T21:07:52.415Z,-1.83
2019-01-31T21:10:26.395Z,-1.86
2019-01-31T21:12:57.553Z,-1.83
2019-01-31T21:15:30.632Z,-1.90
2019-01-31T21:18:02.369Z,-1.91
2019-01-31T21:20:34.095Z,-1.87
2019-01-31T21:23:06.586Z,-1.79
2019-01-31T21:25:38.464Z,-1.74
2019-01-31T21:28:12.280Z,-1.67
2019-01-31T21:30:44.238Z,-1.69
2019-01-31T21:33:16.288Z,-1.68
2019-01-31T21:35:47.999Z,-1.81
2019-01-31T21:38:19.714Z,-1.75
2019-01-31T21:40:51.437Z,-1.77
2019-01-31T21:43:23.422Z,-1.82
2019-01-31T21:45:55.053Z,-1.79
2019-01-31T21:48:30.514Z,-1.77
2019-01-31T21:51:02.678Z,-1.76
2019-01-31T21:53:36.439Z,-1.73
2019-01-31T21:56:07.844Z,-1.70
2019-01-31T21:58:39.549Z,-1.67
2019-01-31T22:01:11.276Z,-1.66
2019-01-31T22:03:43.020Z,-1.66
2019-01-31T22:06:22.309Z,-1.71
2019-01-31T22:08:48.075Z,-1.67
2019-01-31T22:11:19.808Z,-1.69
2019-01-31T22:13:51.491Z,-1.72
2019-01-31T22:16:23.162Z,-1.73
2019-01-31T22:18:54.831Z,-1.75
2019-01-31T22:21:26.842Z,-1.76
2019-01-31T22:23:58.464Z,-1.79
2019-01-31T22:26:30.136Z,-1.81
2019-01-31T22:29:01.841Z,-1.78
2019-01-31T22:31:33.513Z,-1.77
2019-01-31T22:34:06.336Z,-1.77
2019-01-31T22:36:38.027Z,-1.77
2019-01-31T22:39:09.871Z,-1.73
2019-01-31T22:41:41.552Z,-1.72
2019-01-31T22:44:13.177Z,-1.69
2019-01-31T22:46:44.786Z,-1.65
2019-01-31T22:49:17.369Z,-1.62
2019-01-31T22:51:49.034Z,-1.62
2019-01-31T22:54:20.666Z,-1.63
2019-01-31T22:56:52.270Z,-1.58
2019-01-31T22:59:23.942Z,-1.53
2019-01-31T23:01:59.932Z,-1.49
2019-01-31T23:04:31.612Z,-1.49
2019-01-31T23:07:03.367Z,-1.52
2019-01-31T23:09:35.142Z,-1.47
2019-01-31T23:12:06.822Z,-1.48
2019-01-31T23:14:38.555Z,-1.42
2019-01-31T23:17:10.170Z,-1.35
2019-01-31T23:19:41.873Z,-1.41
2019-01-31T23:22:13.468Z,-1.40
2019-01-31T23:24:45.178Z,-1.30
2019-01-31T23:27:16.827Z,-1.24
2019-01-31T23:29:48.501Z,-1.27
2019-01-31T23:32:20.185Z,-1.28
2019-01-31T23:34:51.897Z,-1.30
2019-01-31T23:37:23.561Z,-1.31
2019-01-31T23:39:55.194Z,-1.38
2019-01-31T23:42:26.880Z,-1.46
2019-01-31T23:44:58.939Z,-1.53
2019-01-31T23:47:30.857Z,-1.55
2019-01-31T23:50:02.815Z,-1.57
2019-01-31T23:52:34.683Z,-1.57
2019-01-31T23:55:06.877Z,-1.49
2019-01-31T23:57:38.552Z,-1.46
